createdAt,value
2022-08-14T00:00:15.805Z,4.68
2022-08-14T00:03:40.772Z,4.53
2022-08-14T00:06:44.775Z,4.50
2022-08-14T00:09:55.510Z,4.88
2022-08-14T00:13:06.841Z,4.53
2022-08-14T00:16:41.169Z,4.88
2022-08-14T00:19:37.702Z,4.07
2022-08-14T00:22:56.016Z,4.23
2022-08-14T00:26:06.584Z,4.25
2022-08-14T00:29:11.847Z,4.90
2022-08-14T00:32:50.458Z,4.50
2022-08-14T00:36:35.364Z,4.43
2022-08-14T00:39:01.987Z,4.63
2022-08-14T00:42:21.382Z,4.90
2022-08-14T00:45:32.678Z,4.60
2022-08-14T00:48:38.286Z,4.82
2022-08-14T00:51:44.236Z,5.18
2022-08-14T00:54:53.042Z,5.20
2022-08-14T00:58:20.035Z,5.57
2022-08-14T01:01:37.374Z,5.15
2022-08-14T01:04:53.506Z,5.60
2022-08-14T01:07:59.538Z,5.15
2022-08-14T01:11:03.533Z,5.53
2022-08-14T01:14:25.322Z,5.95
2022-08-14T01:18:01.384Z,5.53
2022-08-14T01:21:11.817Z,5.00
2022-08-14T01:24:24.719Z,5.53
2022-08-14T01:27:45.178Z,5.25
2022-08-14T01:30:59.595Z,5.38
2022-08-14T01:35:20.559Z,5.10
2022-08-14T01:37:28.880Z,5.93
2022-08-14T01:40:41.074Z,5.55
2022-08-14T01:43:56.419Z,5.97
2022-08-14T01:47:11.827Z,6.00
2022-08-14T01:50:18.307Z,5.53
2022-08-14T01:53:35.702Z,6.32
2022-08-14T01:56:41.069Z,5.82
2022-08-14T01:59:44.863Z,6.00
2022-08-14T02:02:48.228Z,5.97
2022-08-14T02:06:03.577Z,5.68
2022-08-14T02:09:10.112Z,5.88
2022-08-14T02:12:26.492Z,6.38
2022-08-14T02:15:32.516Z,6.45
2022-08-14T02:18:36.319Z,5.80
2022-08-14T02:21:43.641Z,6.17
2022-08-14T02:24:51.396Z,5.93
2022-08-14T02:31:19.802Z,6.00
2022-08-14T02:34:34.114Z,6.30
2022-08-14T02:37:47.570Z,6.40
2022-08-14T02:40:51.581Z,6.85
2022-08-14T02:43:54.993Z,6.50
2022-08-14T02:47:04.377Z,6.03
2022-08-14T02:50:17.974Z,6.22
2022-08-14T02:53:21.222Z,6.50
2022-08-14T02:56:30.178Z,6.97
2022-08-14T02:59:50.229Z,6.40
2022-08-14T03:02:59.316Z,6.90
2022-08-14T03:06:04.867Z,6.90
2022-08-14T03:09:09.977Z,6.70
2022-08-14T03:12:12.938Z,6.53
2022-08-14T03:15:36.484Z,6.22
2022-08-14T03:18:43.640Z,6.88
2022-08-14T03:21:52.988Z,7.40
2022-08-14T03:24:56.216Z,6.72
2022-08-14T03:28:08.105Z,6.82
2022-08-14T03:31:22.515Z,6.43
2022-08-14T03:34:45.663Z,7.70
2022-08-14T03:39:14.960Z,6.60
2022-08-14T03:41:23.912Z,7.20
2022-08-14T03:45:18.984Z,6.90
2022-08-14T03:47:58.449Z,7.05
2022-08-14T03:51:02.823Z,7.50
2022-08-14T03:57:24.699Z,7.28
2022-08-14T04:03:48.906Z,7.00
2022-08-14T04:07:00.144Z,7.00
2022-08-14T04:10:04.875Z,7.40
2022-08-14T04:13:08.238Z,7.57
2022-08-14T04:16:16.784Z,6.70
2022-08-14T04:19:24.708Z,6.65
2022-08-14T04:22:31.883Z,7.15
2022-08-14T04:25:37.413Z,6.75
2022-08-14T04:29:09.145Z,7.32
2022-08-14T04:32:59.275Z,6.90
2022-08-14T04:35:55.320Z,7.13
2022-08-14T04:39:13.971Z,7.60
2022-08-14T04:42:51.350Z,7.32
2022-08-14T04:45:55.285Z,6.85
2022-08-14T04:49:00.180Z,7.40
2022-08-14T04:55:27.696Z,6.70
2022-08-14T04:58:33.835Z,6.38
2022-08-14T05:01:39.610Z,6.68
2022-08-14T05:04:45.023Z,6.07
2022-08-14T05:08:01.207Z,7.43
2022-08-14T05:11:07.270Z,6.75
2022-08-14T05:14:46.159Z,10.05
2022-08-14T05:17:53.868Z,12.30
2022-08-14T05:21:59.261Z,11.90
2022-08-14T05:24:33.701Z,11.25
2022-08-14T05:27:36.876Z,9.83
2022-08-14T05:30:44.449Z,7.63
2022-08-14T05:33:56.478Z,8.30
2022-08-14T05:37:03.186Z,7.07
2022-08-14T05:40:10.480Z,7.03
2022-08-14T05:43:16.514Z,6.78
2022-08-14T05:46:24.022Z,7.68
2022-08-14T05:49:33.414Z,6.68
2022-08-14T05:52:39.226Z,7.15
2022-08-14T05:55:44.463Z,7.00
2022-08-14T05:58:48.361Z,6.75
2022-08-14T06:01:51.465Z,6.72
2022-08-14T06:04:54.578Z,6.00
2022-08-14T06:08:08.693Z,6.10
2022-08-14T06:11:30.799Z,5.88
2022-08-14T06:14:34.590Z,6.07
2022-08-14T06:17:59.347Z,6.13
2022-08-14T06:21:04.575Z,6.50
2022-08-14T06:24:18.143Z,5.55
2022-08-14T06:27:23.001Z,5.47
2022-08-14T06:30:41.780Z,5.65
2022-08-14T06:35:11.245Z,5.63
2022-08-14T06:37:16.707Z,5.57
2022-08-14T06:40:26.724Z,5.05
2022-08-14T06:43:30.551Z,5.45
2022-08-14T06:46:37.001Z,4.93
2022-08-14T06:49:44.994Z,5.38
2022-08-14T06:52:52.852Z,5.70
2022-08-14T06:56:02.261Z,5.72
2022-08-14T06:59:06.615Z,5.72
2022-08-14T07:02:37.788Z,5.78
2022-08-14T07:05:55.368Z,5.20
2022-08-14T07:09:02.486Z,5.50
2022-08-14T07:12:07.927Z,5.53
2022-08-14T07:15:11.149Z,5.38
2022-08-14T07:21:18.120Z,4.78
2022-08-14T07:24:21.929Z,5.40
2022-08-14T07:27:29.137Z,5.15
2022-08-14T07:30:41.929Z,5.10
2022-08-14T07:36:58.156Z,4.85
2022-08-14T07:40:06.142Z,4.80
2022-08-14T07:43:14.180Z,4.60
2022-08-14T07:46:21.165Z,5.30
2022-08-14T07:49:34.246Z,5.05
2022-08-14T07:52:39.555Z,5.00
2022-08-14T07:56:00.249Z,4.90
2022-08-14T07:59:12.889Z,4.65
2022-08-14T08:02:19.202Z,5.00
2022-08-14T08:05:24.890Z,4.88
2022-08-14T08:08:31.249Z,4.90
2022-08-14T08:11:39.747Z,4.70
2022-08-14T08:14:56.223Z,5.05
2022-08-14T08:18:08.556Z,5.07
2022-08-14T08:21:27.166Z,5.25
2022-08-14T08:24:36.754Z,4.82
2022-08-14T08:27:44.650Z,4.32
2022-08-14T08:30:54.593Z,4.40
2022-08-14T08:34:04.168Z,4.32
2022-08-14T08:37:07.449Z,4.75
2022-08-14T08:43:29.542Z,4.32
2022-08-14T08:46:33.316Z,4.75
2022-08-14T08:49:43.077Z,4.65
2022-08-14T08:52:59.128Z,4.55
2022-08-14T08:56:03.908Z,4.35
2022-08-14T08:59:34.300Z,3.92
2022-08-14T09:02:38.437Z,4.43
2022-08-14T09:06:54.005Z,4.45
2022-08-14T09:09:33.911Z,4.50
2022-08-14T09:12:37.388Z,4.35
2022-08-14T09:15:42.971Z,4.45
2022-08-14T09:18:47.229Z,4.53
2022-08-14T09:21:51.460Z,4.40
2022-08-14T09:24:58.438Z,4.90
2022-08-14T09:28:04.681Z,4.43
2022-08-14T09:31:17.608Z,4.35
2022-08-14T09:34:27.466Z,4.65
2022-08-14T09:37:41.919Z,4.20
2022-08-14T09:41:04.746Z,4.82
2022-08-14T09:44:46.051Z,4.28
2022-08-14T09:47:57.224Z,4.32
2022-08-14T09:54:22.405Z,4.30
2022-08-14T09:57:39.825Z,3.88
2022-08-14T10:00:54.915Z,4.25
2022-08-14T10:03:59.663Z,4.72
2022-08-14T10:07:05.066Z,4.18
2022-08-14T10:10:23.565Z,4.28
2022-08-14T10:13:27.358Z,4.22
2022-08-14T10:16:51.282Z,3.78
2022-08-14T10:19:57.975Z,4.00
2022-08-14T10:23:19.481Z,4.05
2022-08-14T10:26:28.491Z,3.90
2022-08-14T10:29:39.927Z,4.32
2022-08-14T10:32:51.685Z,4.30
2022-08-14T10:35:56.275Z,4.22
2022-08-14T10:39:07.003Z,4.20
2022-08-14T10:42:16.394Z,3.78
2022-08-14T10:45:24.466Z,3.90
2022-08-14T10:48:37.203Z,4.00
2022-08-14T10:52:08.557Z,4.10
2022-08-14T10:55:19.447Z,3.92
2022-08-14T10:58:32.826Z,3.47
2022-08-14T11:01:41.825Z,3.65
2022-08-14T11:04:46.106Z,3.53
2022-08-14T11:07:56.611Z,3.80
2022-08-14T11:11:03.377Z,3.47
2022-08-14T11:14:09.293Z,3.40
2022-08-14T11:17:13.446Z,3.40
2022-08-14T11:20:19.248Z,3.40
2022-08-14T11:23:38.256Z,3.30
2022-08-14T11:26:44.786Z,4.13
2022-08-14T11:29:52.712Z,3.53
2022-08-14T11:33:05.387Z,3.00
2022-08-14T11:36:17.297Z,3.47
2022-08-14T11:39:35.077Z,3.53
2022-08-14T11:43:06.147Z,3.30
2022-08-14T11:49:34.121Z,3.15
2022-08-14T11:52:40.283Z,3.25
2022-08-14T11:55:43.705Z,3.42
2022-08-14T11:58:53.100Z,3.40
2022-08-14T12:01:57.289Z,3.30
2022-08-14T12:05:01.079Z,3.13
2022-08-14T12:08:12.074Z,3.00
2022-08-14T12:11:16.960Z,2.92
2022-08-14T12:14:34.675Z,2.92
2022-08-14T12:17:51.894Z,3.15
2022-08-14T12:21:00.001Z,3.00
2022-08-14T12:24:09.796Z,3.22
2022-08-14T12:27:46.705Z,2.60
2022-08-14T12:30:56.907Z,2.90
2022-08-14T12:34:02.362Z,2.65
2022-08-14T12:37:13.333Z,2.67
2022-08-14T12:40:23.149Z,2.70
2022-08-14T12:43:26.909Z,2.80
2022-08-14T12:46:35.940Z,3.10
2022-08-14T12:49:53.526Z,2.80
2022-08-14T12:53:13.853Z,2.70
2022-08-14T12:56:22.140Z,2.80
2022-08-14T12:59:43.111Z,3.05
2022-08-14T13:02:55.409Z,2.70
2022-08-14T13:06:00.610Z,2.75
2022-08-14T13:09:11.228Z,2.70
2022-08-14T13:12:33.468Z,2.60
2022-08-14T13:15:41.044Z,3.00
2022-08-14T13:18:47.004Z,2.40
2022-08-14T13:22:05.399Z,2.90
2022-08-14T13:25:15.884Z,2.70
2022-08-14T13:28:33.386Z,2.90
2022-08-14T13:31:39.474Z,2.72
2022-08-14T13:35:12.085Z,2.60
2022-08-14T13:38:22.196Z,2.72
2022-08-14T13:41:31.771Z,2.90
2022-08-14T13:44:42.769Z,2.78
2022-08-14T13:47:46.683Z,2.83
2022-08-14T13:50:55.405Z,2.97
2022-08-14T13:54:11.093Z,2.80
2022-08-14T13:57:17.814Z,2.80
2022-08-14T14:00:32.407Z,2.97
2022-08-14T14:03:37.844Z,3.10
2022-08-14T14:06:44.595Z,3.10
2022-08-14T14:09:52.429Z,2.63
2022-08-14T14:12:57.668Z,2.92
2022-08-14T14:16:04.648Z,2.92
2022-08-14T14:19:10.241Z,3.17
2022-08-14T14:22:35.670Z,2.97
2022-08-14T14:25:51.072Z,3.40
2022-08-14T14:29:01.810Z,2.90
2022-08-14T14:32:05.279Z,3.30
2022-08-14T14:35:21.264Z,3.63
2022-08-14T14:38:42.352Z,3.70
2022-08-14T14:41:56.282Z,3.42
2022-08-14T14:45:15.543Z,3.40
2022-08-14T14:48:19.599Z,3.60
2022-08-14T14:51:22.879Z,3.58
2022-08-14T14:54:31.211Z,3.50
2022-08-14T14:57:42.219Z,3.40
2022-08-14T15:00:48.191Z,3.50
2022-08-14T15:03:55.149Z,3.42
2022-08-14T15:07:00.437Z,3.15
2022-08-14T15:10:28.010Z,3.42
2022-08-14T15:13:33.542Z,3.70
2022-08-14T15:16:37.266Z,3.55
2022-08-14T15:19:42.478Z,3.75
2022-08-14T15:23:12.118Z,3.30
2022-08-14T15:26:24.283Z,3.17
2022-08-14T15:29:38.939Z,3.50
2022-08-14T15:32:46.289Z,3.60
2022-08-14T15:35:51.165Z,3.50
2022-08-14T15:38:55.959Z,3.30
2022-08-14T15:42:01.307Z,3.30
2022-08-14T15:45:07.789Z,3.22
2022-08-14T15:48:22.197Z,3.10
2022-08-14T15:51:31.373Z,2.95
2022-08-14T15:54:35.348Z,2.72
2022-08-14T16:01:26.404Z,3.13
2022-08-14T16:04:37.518Z,2.90
2022-08-14T16:07:41.796Z,3.20
2022-08-14T16:10:47.898Z,3.08
2022-08-14T16:13:51.468Z,3.15
2022-08-14T16:17:02.574Z,3.38
2022-08-14T16:20:08.891Z,3.38
2022-08-14T16:23:18.248Z,3.20
2022-08-14T16:26:29.117Z,3.08
2022-08-14T16:29:36.144Z,3.47
2022-08-14T16:32:55.125Z,3.38
2022-08-14T16:36:02.240Z,3.40
2022-08-14T16:39:08.406Z,3.15
2022-08-14T16:43:02.287Z,3.63
2022-08-14T16:45:43.731Z,3.10
2022-08-14T16:48:55.377Z,3.47
2022-08-14T16:55:30.426Z,3.35
2022-08-14T16:58:35.298Z,3.40
2022-08-14T17:01:45.662Z,3.63
2022-08-14T17:04:50.028Z,3.58
2022-08-14T17:08:41.367Z,3.75
2022-08-14T17:11:54.421Z,3.40
2022-08-14T17:15:10.112Z,3.47
2022-08-14T17:18:22.415Z,3.60
2022-08-14T17:21:38.070Z,3.85
2022-08-14T17:24:57.849Z,3.80
2022-08-14T17:28:51.085Z,3.30
2022-08-14T17:31:57.810Z,3.47
2022-08-14T17:35:05.658Z,3.63
2022-08-14T17:38:38.643Z,3.78
2022-08-14T17:41:43.889Z,3.72
2022-08-14T17:44:48.449Z,3.50
2022-08-14T17:47:52.627Z,3.92
2022-08-14T17:51:01.142Z,3.88
2022-08-14T17:54:08.418Z,3.90
2022-08-14T17:57:14.904Z,4.15
2022-08-14T18:00:18.020Z,3.63
2022-08-14T18:03:51.197Z,3.90
2022-08-14T18:06:57.847Z,3.95
2022-08-14T18:10:51.715Z,4.30
2022-08-14T18:13:49.841Z,3.92
2022-08-14T18:16:57.570Z,3.97
2022-08-14T18:20:01.498Z,4.47
2022-08-14T18:23:21.652Z,4.65
2022-08-14T18:26:37.149Z,4.57
2022-08-14T18:29:55.364Z,4.40
2022-08-14T18:33:15.664Z,4.13
2022-08-14T18:36:55.380Z,5.15
2022-08-14T18:40:34.546Z,4.78
2022-08-14T18:43:59.158Z,5.30
2022-08-14T18:47:10.122Z,4.82
2022-08-14T18:50:27.863Z,5.05
2022-08-14T18:53:59.313Z,5.10
2022-08-14T18:57:05.486Z,5.65
2022-08-14T19:00:43.004Z,5.72
2022-08-14T19:03:57.554Z,4.80
2022-08-14T19:07:16.530Z,4.70
2022-08-14T19:10:31.860Z,4.97
2022-08-14T19:13:44.832Z,5.20
2022-08-14T19:16:54.788Z,4.80
2022-08-14T19:20:07.226Z,4.85
2022-08-14T19:23:21.441Z,4.97
2022-08-14T19:26:35.904Z,5.30
2022-08-14T19:29:52.186Z,6.05
2022-08-14T19:33:02.549Z,5.85
2022-08-14T19:36:29.283Z,5.53
2022-08-14T19:39:56.552Z,5.28
2022-08-14T19:43:00.335Z,5.78
2022-08-14T19:46:03.539Z,4.95
2022-08-14T19:50:24.449Z,5.78
2022-08-14T19:53:11.192Z,5.38
2022-08-14T19:56:29.203Z,5.82
2022-08-14T19:59:57.170Z,5.05
2022-08-14T20:03:10.838Z,5.85
2022-08-14T20:06:18.235Z,5.78
2022-08-14T20:11:06.340Z,5.60
2022-08-14T20:12:57.434Z,5.53
2022-08-14T20:16:11.866Z,5.85
2022-08-14T20:22:39.022Z,5.38
2022-08-14T20:25:57.032Z,6.05
2022-08-14T20:29:05.050Z,6.38
2022-08-14T20:32:14.894Z,5.68
2022-08-14T20:35:43.755Z,6.40
2022-08-14T20:38:57.274Z,6.65
2022-08-14T20:42:29.608Z,6.70
2022-08-14T20:45:42.238Z,6.30
2022-08-14T20:49:04.888Z,6.13
2022-08-14T20:52:18.629Z,6.20
2022-08-14T20:55:41.681Z,6.45
2022-08-14T20:58:48.927Z,6.00
2022-08-14T21:01:55.248Z,5.80
2022-08-14T21:05:16.190Z,6.28
2022-08-14T21:08:25.740Z,5.57
2022-08-14T21:11:30.329Z,5.78
2022-08-14T21:17:37.850Z,5.60
2022-08-14T21:20:43.160Z,5.95
2022-08-14T21:23:54.552Z,5.88
2022-08-14T21:27:12.241Z,6.00
2022-08-14T21:30:20.811Z,6.28
2022-08-14T21:33:25.928Z,5.78
2022-08-14T21:36:31.080Z,5.63
2022-08-14T21:39:35.140Z,5.85
2022-08-14T21:42:38.309Z,6.20
2022-08-14T21:45:42.969Z,6.10
2022-08-14T21:48:46.058Z,6.38
2022-08-14T21:52:01.004Z,6.17
2022-08-14T21:55:23.709Z,6.50
2022-08-14T21:58:51.955Z,5.45
2022-08-14T22:02:01.035Z,6.20
2022-08-14T22:08:19.049Z,6.00
2022-08-14T22:11:22.748Z,6.15
2022-08-14T22:14:27.514Z,6.10
2022-08-14T22:17:34.417Z,6.30
2022-08-14T22:20:40.626Z,6.20
2022-08-14T22:23:44.969Z,6.70
2022-08-14T22:26:50.781Z,6.28
2022-08-14T22:29:54.532Z,6.40
2022-08-14T22:33:00.190Z,6.45
2022-08-14T22:36:25.189Z,6.88
2022-08-14T22:40:17.483Z,7.70
2022-08-14T22:42:57.426Z,6.97
2022-08-14T22:46:14.519Z,7.10
2022-08-14T22:50:32.023Z,7.55
2022-08-14T22:52:49.559Z,8.18
2022-08-14T22:55:53.269Z,7.40
2022-08-14T22:58:58.116Z,7.90
2022-08-14T23:02:15.653Z,8.30
2022-08-14T23:05:19.921Z,8.07
2022-08-14T23:08:56.324Z,8.03
2022-08-14T23:12:27.415Z,8.00
2022-08-14T23:18:34.771Z,7.68
2022-08-14T23:21:46.414Z,7.72
2022-08-14T23:24:52.827Z,7.97
2022-08-14T23:28:03.661Z,7.47
2022-08-14T23:31:12.524Z,7.45
2022-08-14T23:34:21.682Z,7.70
2022-08-14T23:37:26.976Z,6.95
2022-08-14T23:40:31.591Z,7.45
2022-08-14T23:43:36.279Z,7.90
2022-08-14T23:46:39.906Z,7.80
2022-08-14T23:50:00.184Z,7.03
2022-08-14T23:53:28.241Z,8.70
2022-08-14T23:56:40.211Z,8.38
2022-08-14T23:59:54.184Z,7.60
